Thursday, October 19, 2017, 7:05 AM EDT
Back to Local

KWST, Westerly State Airport

Location: Westerly, RI, United States Lat: 41.35
Local Time: 7:05 AM EDT (11:05 GMT) Lon: -71.8
Time Zone: US/Eastern Elev: 82 ft

Show me the last for .
Show Decoded

2017-10-19 06:53 METAR KWST 191053Z AUTO 00000KT 10SM CLR 06/05 A3026 RMK AO2 SLP246 T00610050 =
2017-10-19 05:53 METAR KWST 190953Z AUTO 00000KT 10SM CLR 06/05 A3026 RMK AO2 SLP246 T00610050 =
2017-10-19 04:53 METAR KWST 190853Z AUTO 00000KT 10SM CLR 07/06 A3026 RMK AO2 SLP246 T00670056
                 56006 =
2017-10-19 03:53 METAR KWST 190753Z AUTO 00000KT 10SM CLR 07/06 A3026 RMK AO2 SLP246 T00720056 =
2017-10-19 02:53 METAR KWST 190653Z AUTO 00000KT 10SM CLR 07/06 A3027 RMK AO2 SLP249 T00720061 =
2017-10-19 01:53 METAR KWST 190553Z AUTO 00000KT 10SM CLR 08/07 A3028 RMK AO2 SLP252 T00780067
                 10161 20078 56007 =
2017-10-19 00:53 METAR KWST 190453Z AUTO 00000KT 9SM CLR 08/07 A3028 RMK AO2 SLP253 T00830072
                 402060083 =
2017-10-18 23:53 METAR KWST 190353Z AUTO 00000KT 10SM CLR 09/08 A3029 RMK AO2 SLP256 T00940083 =
2017-10-18 22:53 METAR KWST 190253Z AUTO 00000KT 10SM CLR 10/09 A3030 RMK AO2 SLP259 T01000089
                 50004 =
2017-10-18 21:53 METAR KWST 190153Z AUTO 00000KT 10SM CLR 12/10 A3030 RMK AO2 SLP260 T01170100 =
2017-10-18 20:53 METAR KWST 190053Z AUTO 24003KT 10SM CLR 16/12 A3029 RMK AO2 SLP257 T01560122 =
2017-10-18 19:53 METAR KWST 182353Z AUTO 24004KT 10SM CLR 16/12 A3029 RMK AO2 SLP255 T01560122
                 10206 20139 52013 =
2017-10-18 18:53 METAR KWST 182253Z AUTO 00000KT 10SM CLR 15/12 A3027 RMK AO2 SLP251 T01500117 =
2017-10-18 17:53 METAR KWST 182153Z AUTO 25003KT 10SM CLR 18/11 A3026 RMK AO2 SLP246 T01780111 =
2017-10-18 16:53 METAR KWST 182053Z AUTO 25007KT 10SM CLR 19/10 A3025 RMK AO2 SLP242 T01940100
                 58003 =
2017-10-18 15:53 METAR KWST 181953Z AUTO 23008KT 10SM CLR 20/10 A3025 RMK AO2 SLP244 T02000100 =
2017-10-18 14:53 METAR KWST 181853Z AUTO 23008KT 10SM CLR 20/09 A3025 RMK AO2 SLP244 T02000094 =
2017-10-18 13:53 METAR KWST 181753Z AUTO 22007KT 10SM CLR 21/09 A3026 RMK AO2 SLP245 T02060089
                 10206 20117 58015 =
2017-10-18 12:53 METAR KWST 181653Z AUTO 22007KT 10SM CLR 21/08 A3028 RMK AO2 SLP253 T02060083 =
2017-10-18 11:53 METAR KWST 181553Z AUTO VRB05KT 10SM CLR 19/07 A3030 RMK AO2 SLP260 T01940072 =
2017-10-18 10:53 METAR KWST 181453Z AUTO 24005KT 10SM CLR 17/06 A3030 RMK AO2 SLP261 T01720056
                 50006 =
2017-10-18 09:53 METAR KWST 181353Z AUTO 26005KT 10SM CLR 16/05 A3031 RMK AO2 SLP262 T01610050 =
2017-10-18 08:53 METAR KWST 181253Z AUTO 27004KT 10SM CLR 14/04 A3030 RMK AO2 SLP260 T01390044 =
2017-10-18 07:53 METAR KWST 181153Z AUTO 00000KT 10SM CLR 12/03 A3029 RMK AO2 SLP255 T01170033
                 10128 20100 51011 =

Support USWX by starting your Amazon purchase here.